CPA927 ZGHA-VHHH
Flight info
| Callsign | CPA927 |
|---|---|
| Flight time | 1h 7m |
| Altitude | 34000 |
| Route | UBM9X/36L UBMOG W615 IDAXI R473 WYN W18 NLG W23 ZUH R473 SIERA SIER2G/25R |
| Aircraft | A359/H-SDE2E3GHIJ1J3J4J5LM1ORWXYZ/LB1D1 |
Departure
| Time | 2026-04-17 10:59 |
|---|---|
| Airport | Changsha Huanghua International Airport (ZGHA) |
Arrival
| Time | 2026-04-17 12:06 |
|---|---|
| Airport | Hong Kong International Airport (VHHH) |
| Time | Latitude | Longitude | Altitude | Speed | Heading |
|---|---|---|---|---|---|
| 2026-04-17 10:41 | 28.19615 | 113.21549 | 224 ft | 0 kts | 260° |
| 2026-04-17 10:49 | 28.19616 | 113.21555 | 225 ft | 2 kts | 259° |
| 2026-04-17 10:49 | 28.19619 | 113.21571 | 225 ft | 2 kts | 259° |
| 2026-04-17 10:49 | 28.19621 | 113.21588 | 225 ft | 2 kts | 260° |
| 2026-04-17 10:49 | 28.19623 | 113.21600 | 225 ft | 1 kts | 260° |
| 2026-04-17 10:50 | 28.19627 | 113.21616 | 225 ft | 2 kts | 240° |
| 2026-04-17 10:50 | 28.19636 | 113.21629 | 225 ft | 2 kts | 220° |
| 2026-04-17 10:50 | 28.19648 | 113.21639 | 225 ft | 2 kts | 202° |
| 2026-04-17 10:50 | 28.19663 | 113.21644 | 225 ft | 2 kts | 185° |
| 2026-04-17 10:51 | 28.19670 | 113.21644 | 225 ft | 1 kts | 176° |
| 2026-04-17 10:51 | 28.19671 | 113.21644 | 225 ft | 0 kts | 176° |
| 2026-04-17 10:53 | 28.19666 | 113.21644 | 224 ft | 3 kts | 176° |
| 2026-04-17 10:53 | 28.19618 | 113.21648 | 224 ft | 10 kts | 178° |
| 2026-04-17 10:54 | 28.19532 | 113.21652 | 224 ft | 13 kts | 177° |
| 2026-04-17 10:54 | 28.19440 | 113.21656 | 224 ft | 13 kts | 180° |
| 2026-04-17 10:54 | 28.19340 | 113.21653 | 224 ft | 16 kts | 179° |
| 2026-04-17 10:54 | 28.19225 | 113.21660 | 225 ft | 14 kts | 176° |
| 2026-04-17 10:55 | 28.19168 | 113.21698 | 224 ft | 10 kts | 110° |
| 2026-04-17 10:55 | 28.19123 | 113.21767 | 225 ft | 13 kts | 160° |
| 2026-04-17 10:55 | 28.19010 | 113.21782 | 224 ft | 19 kts | 176° |
| 2026-04-17 10:55 | 28.18856 | 113.21792 | 224 ft | 24 kts | 176° |
| 2026-04-17 10:56 | 28.18692 | 113.21802 | 225 ft | 23 kts | 177° |
| 2026-04-17 10:56 | 28.18525 | 113.21812 | 224 ft | 25 kts | 176° |
| 2026-04-17 10:56 | 28.18351 | 113.21822 | 225 ft | 23 kts | 177° |
| 2026-04-17 10:56 | 28.18196 | 113.21832 | 225 ft | 23 kts | 177° |
| 2026-04-17 10:57 | 28.18021 | 113.21844 | 225 ft | 24 kts | 177° |
| 2026-04-17 10:57 | 28.17876 | 113.21852 | 224 ft | 16 kts | 177° |
| 2026-04-17 10:57 | 28.17763 | 113.21879 | 225 ft | 17 kts | 137° |
| 2026-04-17 10:57 | 28.17743 | 113.21958 | 224 ft | 8 kts | 90° |
| 2026-04-17 10:58 | 28.17757 | 113.22021 | 224 ft | 9 kts | 54° |
| 2026-04-17 10:58 | 28.17796 | 113.22041 | 225 ft | 6 kts | 7° |
| 2026-04-17 10:58 | 28.17870 | 113.22041 | 224 ft | 25 kts | 356° |
| 2026-04-17 10:58 | 28.18306 | 113.22012 | 225 ft | 98 kts | 356° |
| 2026-04-17 10:59 | 28.19197 | 113.21970 | 225 ft | 157 kts | 356° |
| 2026-04-17 10:59 | 28.20402 | 113.21873 | 590 ft | 177 kts | 355° |
| 2026-04-17 10:59 | 28.21579 | 113.21767 | 1386 ft | 172 kts | 355° |
| 2026-04-17 10:59 | 28.22767 | 113.21704 | 2050 ft | 173 kts | 357° |
| 2026-04-17 11:00 | 28.23990 | 113.21656 | 2426 ft | 185 kts | 358° |
| 2026-04-17 11:00 | 28.25347 | 113.21593 | 2774 ft | 202 kts | 357° |
| 2026-04-17 11:00 | 28.26799 | 113.21523 | 3179 ft | 219 kts | 1° |
| 2026-04-17 11:00 | 28.28257 | 113.21991 | 3593 ft | 234 kts | 38° |
| 2026-04-17 11:01 | 28.29202 | 113.23486 | 4109 ft | 243 kts | 76° |
| 2026-04-17 11:01 | 28.29154 | 113.25417 | 4593 ft | 255 kts | 112° |
| 2026-04-17 11:01 | 28.28064 | 113.27010 | 5144 ft | 266 kts | 147° |
| 2026-04-17 11:01 | 28.26371 | 113.27797 | 5949 ft | 270 kts | 165° |
| 2026-04-17 11:02 | 28.24541 | 113.28308 | 6788 ft | 273 kts | 165° |
| 2026-04-17 11:02 | 28.22723 | 113.28847 | 7591 ft | 277 kts | 163° |
| 2026-04-17 11:02 | 28.20874 | 113.29472 | 8409 ft | 281 kts | 161° |
| 2026-04-17 11:02 | 28.19023 | 113.30161 | 9217 ft | 285 kts | 160° |
| 2026-04-17 11:03 | 28.17148 | 113.30904 | 10016 ft | 290 kts | 159° |
| 2026-04-17 11:03 | 28.15233 | 113.31689 | 10670 ft | 299 kts | 159° |
| 2026-04-17 11:03 | 28.13244 | 113.32523 | 11114 ft | 315 kts | 158° |
| 2026-04-17 11:03 | 28.11131 | 113.33418 | 11535 ft | 332 kts | 158° |
| 2026-04-17 11:04 | 28.08915 | 113.34364 | 11933 ft | 349 kts | 158° |
| 2026-04-17 11:04 | 28.06604 | 113.35350 | 12301 ft | 365 kts | 158° |
| 2026-04-17 11:04 | 28.04181 | 113.36386 | 12639 ft | 382 kts | 158° |
| 2026-04-17 11:04 | 28.01649 | 113.37471 | 12969 ft | 397 kts | 158° |
| 2026-04-17 11:05 | 27.99033 | 113.38591 | 13532 ft | 405 kts | 158° |
| 2026-04-17 11:05 | 27.96415 | 113.39711 | 14233 ft | 408 kts | 158° |
| 2026-04-17 11:05 | 27.93757 | 113.40846 | 14927 ft | 410 kts | 158° |
| 2026-04-17 11:05 | 27.91085 | 113.41988 | 15584 ft | 413 kts | 158° |
| 2026-04-17 11:06 | 27.88451 | 113.43113 | 16214 ft | 416 kts | 158° |
| 2026-04-17 11:06 | 27.85760 | 113.44258 | 16844 ft | 419 kts | 158° |
| 2026-04-17 11:06 | 27.83045 | 113.45414 | 17460 ft | 422 kts | 158° |
| 2026-04-17 11:06 | 27.80303 | 113.46581 | 18063 ft | 425 kts | 158° |
| 2026-04-17 11:07 | 27.77516 | 113.47768 | 18656 ft | 428 kts | 158° |
| 2026-04-17 11:07 | 27.74754 | 113.48945 | 19225 ft | 430 kts | 158° |
| 2026-04-17 11:07 | 27.71940 | 113.50143 | 19786 ft | 433 kts | 158° |
| 2026-04-17 11:07 | 27.69134 | 113.51338 | 20332 ft | 436 kts | 158° |
| 2026-04-17 11:08 | 27.66300 | 113.52544 | 20866 ft | 438 kts | 158° |
| 2026-04-17 11:08 | 27.63473 | 113.53747 | 21384 ft | 441 kts | 158° |
| 2026-04-17 11:08 | 27.60572 | 113.54981 | 21903 ft | 444 kts | 158° |
| 2026-04-17 11:08 | 27.57700 | 113.56200 | 22402 ft | 446 kts | 158° |
| 2026-04-17 11:09 | 27.54790 | 113.57436 | 22892 ft | 449 kts | 159° |
| 2026-04-17 11:09 | 27.51881 | 113.58670 | 23364 ft | 451 kts | 159° |
| 2026-04-17 11:09 | 27.48922 | 113.59926 | 23824 ft | 454 kts | 159° |
| 2026-04-17 11:10 | 27.43009 | 113.62431 | 24693 ft | 459 kts | 159° |
| 2026-04-17 11:10 | 27.40036 | 113.63691 | 25106 ft | 461 kts | 159° |
| 2026-04-17 11:10 | 27.37064 | 113.64950 | 25494 ft | 463 kts | 159° |
| 2026-04-17 11:10 | 27.34075 | 113.66223 | 25863 ft | 466 kts | 159° |
| 2026-04-17 11:11 | 27.31085 | 113.67501 | 26223 ft | 468 kts | 160° |
| 2026-04-17 11:11 | 27.28040 | 113.68790 | 26570 ft | 470 kts | 160° |
| 2026-04-17 11:11 | 27.24936 | 113.69949 | 26909 ft | 472 kts | 164° |
| 2026-04-17 11:11 | 27.21778 | 113.70890 | 27227 ft | 474 kts | 167° |
| 2026-04-17 11:12 | 27.18523 | 113.71615 | 27539 ft | 477 kts | 171° |
| 2026-04-17 11:12 | 27.15261 | 113.72161 | 27848 ft | 479 kts | 172° |
| 2026-04-17 11:12 | 27.11976 | 113.72683 | 28135 ft | 481 kts | 172° |
| 2026-04-17 11:12 | 27.08675 | 113.73202 | 28415 ft | 483 kts | 172° |
| 2026-04-17 11:13 | 27.05348 | 113.73725 | 28694 ft | 485 kts | 172° |
| 2026-04-17 11:13 | 27.02020 | 113.74253 | 28952 ft | 487 kts | 174° |
| 2026-04-17 11:13 | 26.98643 | 113.74796 | 29108 ft | 492 kts | 173° |
| 2026-04-17 11:13 | 26.95222 | 113.75336 | 29246 ft | 498 kts | 173° |
| 2026-04-17 11:14 | 26.91826 | 113.75869 | 29426 ft | 501 kts | 173° |
| 2026-04-17 11:14 | 26.88511 | 113.76390 | 29720 ft | 502 kts | 173° |
| 2026-04-17 11:14 | 26.85023 | 113.76939 | 30115 ft | 501 kts | 173° |
| 2026-04-17 11:14 | 26.81571 | 113.77487 | 30525 ft | 499 kts | 173° |
| 2026-04-17 11:15 | 26.78194 | 113.78028 | 30911 ft | 498 kts | 172° |
| 2026-04-17 11:15 | 26.74790 | 113.78697 | 31283 ft | 497 kts | 169° |
| 2026-04-17 11:15 | 26.71438 | 113.79548 | 31639 ft | 496 kts | 166° |
| 2026-04-17 11:15 | 26.68095 | 113.80570 | 31995 ft | 495 kts | 165° |
| 2026-04-17 11:16 | 26.64783 | 113.81611 | 32340 ft | 494 kts | 165° |
| 2026-04-17 11:16 | 26.61472 | 113.82652 | 32630 ft | 495 kts | 165° |
| 2026-04-17 11:16 | 26.58170 | 113.83688 | 32878 ft | 496 kts | 165° |
| 2026-04-17 11:16 | 26.54900 | 113.84709 | 33111 ft | 496 kts | 165° |
| 2026-04-17 11:17 | 26.51595 | 113.85741 | 33343 ft | 497 kts | 165° |
| 2026-04-17 11:17 | 26.48262 | 113.86768 | 33572 ft | 498 kts | 166° |
| 2026-04-17 11:17 | 26.44881 | 113.87762 | 33797 ft | 498 kts | 166° |
| 2026-04-17 11:17 | 26.41561 | 113.88720 | 33968 ft | 499 kts | 166° |
| 2026-04-17 11:18 | 26.34835 | 113.90653 | 33993 ft | 500 kts | 166° |
| 2026-04-17 11:18 | 26.28102 | 113.92590 | 33996 ft | 500 kts | 166° |
| 2026-04-17 11:19 | 26.21374 | 113.94528 | 33997 ft | 500 kts | 166° |
| 2026-04-17 11:19 | 26.14690 | 113.96451 | 33997 ft | 500 kts | 166° |
| 2026-04-17 11:20 | 26.07920 | 113.98393 | 33997 ft | 500 kts | 166° |
| 2026-04-17 11:20 | 26.01202 | 114.00324 | 33997 ft | 500 kts | 166° |
| 2026-04-17 11:21 | 25.94529 | 114.02309 | 33997 ft | 500 kts | 166° |
| 2026-04-17 11:21 | 25.87894 | 114.04295 | 33997 ft | 500 kts | 166° |
| 2026-04-17 11:22 | 25.81171 | 114.06287 | 33993 ft | 500 kts | 166° |
| 2026-04-17 11:22 | 25.74493 | 114.08263 | 33986 ft | 500 kts | 166° |
| 2026-04-17 11:23 | 25.67790 | 114.10245 | 33978 ft | 501 kts | 166° |
| 2026-04-17 11:23 | 25.61060 | 114.12234 | 33974 ft | 501 kts | 166° |
| 2026-04-17 11:24 | 25.54364 | 114.14211 | 33972 ft | 501 kts | 166° |
| 2026-04-17 11:24 | 25.47642 | 114.16194 | 33971 ft | 501 kts | 166° |
| 2026-04-17 11:25 | 25.40926 | 114.18172 | 33970 ft | 501 kts | 166° |
| 2026-04-17 11:25 | 25.34195 | 114.20151 | 33970 ft | 501 kts | 166° |
| 2026-04-17 11:26 | 25.27509 | 114.22113 | 33970 ft | 501 kts | 166° |
| 2026-04-17 11:26 | 25.20764 | 114.24090 | 33969 ft | 501 kts | 166° |
| 2026-04-17 11:27 | 25.13979 | 114.25523 | 33969 ft | 500 kts | 174° |
| 2026-04-17 11:27 | 25.07055 | 114.25944 | 33968 ft | 501 kts | 181° |
| 2026-04-17 11:28 | 25.00118 | 114.25326 | 33969 ft | 505 kts | 188° |
| 2026-04-17 11:28 | 24.93283 | 114.23898 | 33970 ft | 506 kts | 191° |
| 2026-04-17 11:29 | 24.86674 | 114.22433 | 33970 ft | 506 kts | 191° |
| 2026-04-17 11:29 | 24.79692 | 114.20908 | 33970 ft | 506 kts | 191° |
| 2026-04-17 11:30 | 24.72792 | 114.19410 | 33970 ft | 506 kts | 191° |
| 2026-04-17 11:30 | 24.65937 | 114.17924 | 33970 ft | 506 kts | 191° |
| 2026-04-17 11:31 | 24.59059 | 114.16434 | 33970 ft | 506 kts | 191° |
| 2026-04-17 11:31 | 24.52126 | 114.14933 | 33970 ft | 506 kts | 191° |
| 2026-04-17 11:32 | 24.45273 | 114.13450 | 33970 ft | 506 kts | 191° |
| 2026-04-17 11:32 | 24.38367 | 114.11958 | 33970 ft | 506 kts | 191° |
| 2026-04-17 11:33 | 24.31630 | 114.10220 | 33970 ft | 506 kts | 195° |
| 2026-04-17 11:33 | 24.24847 | 114.08156 | 33970 ft | 506 kts | 195° |
| 2026-04-17 11:34 | 24.18123 | 114.06102 | 33970 ft | 506 kts | 195° |
| 2026-04-17 11:34 | 24.11329 | 114.04033 | 33970 ft | 506 kts | 195° |
| 2026-04-17 11:35 | 24.04594 | 114.01986 | 33970 ft | 506 kts | 195° |
| 2026-04-17 11:35 | 23.97837 | 113.99936 | 33970 ft | 506 kts | 195° |
| 2026-04-17 11:36 | 23.91079 | 113.97887 | 33970 ft | 506 kts | 195° |
| 2026-04-17 11:36 | 23.84542 | 113.95915 | 33970 ft | 506 kts | 195° |
| 2026-04-17 11:37 | 23.77799 | 113.93883 | 33970 ft | 506 kts | 195° |
| 2026-04-17 11:37 | 23.71316 | 113.91925 | 33970 ft | 506 kts | 195° |
| 2026-04-17 11:38 | 23.64721 | 113.89933 | 33970 ft | 506 kts | 195° |
| 2026-04-17 11:38 | 23.58167 | 113.87953 | 33970 ft | 506 kts | 195° |
| 2026-04-17 11:39 | 23.51534 | 113.85953 | 33970 ft | 506 kts | 195° |
| 2026-04-17 11:39 | 23.44901 | 113.83958 | 33970 ft | 506 kts | 195° |
| 2026-04-17 11:40 | 23.38330 | 113.81979 | 33970 ft | 506 kts | 195° |
| 2026-04-17 11:40 | 23.31865 | 113.80032 | 33970 ft | 506 kts | 195° |
| 2026-04-17 11:41 | 23.25360 | 113.78072 | 33970 ft | 506 kts | 195° |
| 2026-04-17 11:41 | 23.19029 | 113.76167 | 33970 ft | 506 kts | 195° |
| 2026-04-17 11:42 | 23.12624 | 113.74242 | 33970 ft | 506 kts | 195° |
| 2026-04-17 11:42 | 23.05851 | 113.72207 | 33970 ft | 506 kts | 195° |
| 2026-04-17 11:43 | 22.99185 | 113.70204 | 33970 ft | 507 kts | 195° |
| 2026-04-17 11:43 | 22.92589 | 113.68225 | 33970 ft | 509 kts | 195° |
| 2026-04-17 11:44 | 22.85982 | 113.66245 | 33969 ft | 510 kts | 195° |
| 2026-04-17 11:44 | 22.79507 | 113.64281 | 33939 ft | 510 kts | 195° |
| 2026-04-17 11:45 | 22.76122 | 113.63249 | 33465 ft | 510 kts | 195° |
| 2026-04-17 11:45 | 22.72912 | 113.62270 | 32933 ft | 506 kts | 195° |
| 2026-04-17 11:45 | 22.69666 | 113.61281 | 32385 ft | 502 kts | 195° |
| 2026-04-17 11:45 | 22.66330 | 113.60263 | 31807 ft | 501 kts | 195° |
| 2026-04-17 11:46 | 22.63259 | 113.59326 | 31258 ft | 503 kts | 196° |
| 2026-04-17 11:46 | 22.60346 | 113.58437 | 30731 ft | 505 kts | 196° |
| 2026-04-17 11:46 | 22.57672 | 113.57622 | 30240 ft | 506 kts | 196° |
| 2026-04-17 11:46 | 22.54858 | 113.56767 | 29707 ft | 507 kts | 196° |
| 2026-04-17 11:47 | 22.50857 | 113.55550 | 28869 ft | 509 kts | 196° |
| 2026-04-17 11:47 | 22.47508 | 113.54527 | 28135 ft | 508 kts | 196° |
| 2026-04-17 11:47 | 22.44544 | 113.53617 | 27627 ft | 502 kts | 196° |
| 2026-04-17 11:47 | 22.41126 | 113.52567 | 27177 ft | 495 kts | 196° |
| 2026-04-17 11:48 | 22.37811 | 113.51548 | 26650 ft | 490 kts | 196° |
| 2026-04-17 11:48 | 22.34658 | 113.50577 | 26134 ft | 485 kts | 196° |
| 2026-04-17 11:48 | 22.31582 | 113.49631 | 25595 ft | 482 kts | 196° |
| 2026-04-17 11:48 | 22.28523 | 113.48694 | 25060 ft | 477 kts | 196° |
| 2026-04-17 11:49 | 22.25585 | 113.47884 | 24576 ft | 473 kts | 190° |
| 2026-04-17 11:49 | 22.22323 | 113.47577 | 24080 ft | 468 kts | 179° |
| 2026-04-17 11:49 | 22.19136 | 113.47935 | 23597 ft | 462 kts | 168° |
| 2026-04-17 11:49 | 22.16087 | 113.48862 | 23131 ft | 457 kts | 161° |
| 2026-04-17 11:50 | 22.13139 | 113.49966 | 22667 ft | 452 kts | 160° |
| 2026-04-17 11:50 | 22.10234 | 113.51083 | 22207 ft | 448 kts | 160° |
| 2026-04-17 11:50 | 22.07329 | 113.52183 | 21742 ft | 444 kts | 161° |
| 2026-04-17 11:50 | 22.04436 | 113.53255 | 21274 ft | 440 kts | 161° |
| 2026-04-17 11:51 | 22.01556 | 113.54234 | 20791 ft | 436 kts | 168° |
| 2026-04-17 11:51 | 21.98571 | 113.54558 | 20216 ft | 434 kts | 182° |
| 2026-04-17 11:51 | 21.95617 | 113.54034 | 19313 ft | 437 kts | 199° |
| 2026-04-17 11:51 | 21.92806 | 113.52763 | 18713 ft | 432 kts | 206° |
| 2026-04-17 11:52 | 21.90122 | 113.51557 | 18407 ft | 423 kts | 196° |
| 2026-04-17 11:52 | 21.87213 | 113.51260 | 17531 ft | 429 kts | 174° |
| 2026-04-17 11:52 | 21.84365 | 113.52163 | 16642 ft | 433 kts | 153° |
| 2026-04-17 11:52 | 21.81950 | 113.54019 | 16020 ft | 429 kts | 135° |
| 2026-04-17 11:53 | 21.80154 | 113.56502 | 15451 ft | 423 kts | 118° |
| 2026-04-17 11:53 | 21.79110 | 113.59393 | 15003 ft | 414 kts | 102° |
| 2026-04-17 11:53 | 21.78614 | 113.62431 | 14612 ft | 405 kts | 97° |
| 2026-04-17 11:53 | 21.78221 | 113.65385 | 14231 ft | 398 kts | 97° |
| 2026-04-17 11:54 | 21.77819 | 113.68309 | 13856 ft | 390 kts | 98° |
| 2026-04-17 11:54 | 21.77398 | 113.71151 | 13448 ft | 384 kts | 98° |
| 2026-04-17 11:54 | 21.76969 | 113.73901 | 13225 ft | 374 kts | 98° |
| 2026-04-17 11:54 | 21.76534 | 113.76627 | 13014 ft | 363 kts | 99° |
| 2026-04-17 11:55 | 21.76136 | 113.79265 | 12809 ft | 353 kts | 94° |
| 2026-04-17 11:55 | 21.76377 | 113.81778 | 12588 ft | 340 kts | 68° |
| 2026-04-17 11:55 | 21.77612 | 113.83883 | 12399 ft | 326 kts | 42° |
| 2026-04-17 11:55 | 21.79315 | 113.85352 | 12241 ft | 315 kts | 34° |
| 2026-04-17 11:56 | 21.81031 | 113.86698 | 12067 ft | 307 kts | 36° |
| 2026-04-17 11:56 | 21.82677 | 113.88097 | 11881 ft | 300 kts | 38° |
| 2026-04-17 11:56 | 21.84354 | 113.89328 | 11560 ft | 295 kts | 19° |
| 2026-04-17 11:56 | 21.86324 | 113.89629 | 11177 ft | 291 kts | 351° |
| 2026-04-17 11:57 | 21.88196 | 113.88957 | 10851 ft | 287 kts | 335° |
| 2026-04-17 11:57 | 21.89944 | 113.88047 | 10532 ft | 285 kts | 334° |
| 2026-04-17 11:57 | 21.91711 | 113.87120 | 10181 ft | 284 kts | 334° |
| 2026-04-17 11:57 | 21.93459 | 113.86218 | 9846 ft | 283 kts | 335° |
| 2026-04-17 11:58 | 21.95171 | 113.85349 | 9521 ft | 282 kts | 335° |
| 2026-04-17 11:58 | 21.96936 | 113.84473 | 9164 ft | 282 kts | 334° |
| 2026-04-17 11:58 | 21.98692 | 113.83598 | 8794 ft | 282 kts | 334° |
| 2026-04-17 11:58 | 22.00474 | 113.82707 | 8448 ft | 281 kts | 333° |
| 2026-04-17 11:59 | 22.02206 | 113.81841 | 8120 ft | 280 kts | 333° |
| 2026-04-17 11:59 | 22.03943 | 113.80975 | 7792 ft | 280 kts | 333° |
| 2026-04-17 11:59 | 22.05635 | 113.80132 | 7472 ft | 279 kts | 333° |
| 2026-04-17 11:59 | 22.07342 | 113.79282 | 7152 ft | 278 kts | 333° |
| 2026-04-17 12:00 | 22.09086 | 113.78412 | 6825 ft | 277 kts | 333° |
| 2026-04-17 12:00 | 22.10580 | 113.77668 | 6541 ft | 277 kts | 333° |
| 2026-04-17 12:00 | 22.12414 | 113.76760 | 6186 ft | 276 kts | 333° |
| 2026-04-17 12:00 | 22.14182 | 113.75884 | 5843 ft | 276 kts | 334° |
| 2026-04-17 12:01 | 22.15872 | 113.75023 | 5604 ft | 272 kts | 337° |
| 2026-04-17 12:01 | 22.17543 | 113.74194 | 5393 ft | 266 kts | 338° |
| 2026-04-17 12:01 | 22.19209 | 113.73373 | 5186 ft | 261 kts | 338° |
| 2026-04-17 12:01 | 22.20800 | 113.72585 | 4988 ft | 256 kts | 338° |
| 2026-04-17 12:02 | 22.22345 | 113.71819 | 4642 ft | 248 kts | 340° |
| 2026-04-17 12:02 | 22.23934 | 113.71495 | 4204 ft | 236 kts | 12° |
| 2026-04-17 12:02 | 22.25315 | 113.72263 | 3806 ft | 224 kts | 45° |
| 2026-04-17 12:02 | 22.26249 | 113.73368 | 3493 ft | 217 kts | 49° |
| 2026-04-17 12:03 | 22.27187 | 113.74493 | 3148 ft | 211 kts | 47° |
| 2026-04-17 12:03 | 22.28136 | 113.75598 | 2855 ft | 199 kts | 55° |
| 2026-04-17 12:03 | 22.28666 | 113.76846 | 2501 ft | 192 kts | 71° |
| 2026-04-17 12:03 | 22.29041 | 113.78180 | 2159 ft | 186 kts | 73° |
| 2026-04-17 12:04 | 22.29396 | 113.79472 | 1828 ft | 179 kts | 73° |
| 2026-04-17 12:04 | 22.29711 | 113.80563 | 1507 ft | 176 kts | 72° |
| 2026-04-17 12:04 | 22.30101 | 113.81834 | 1255 ft | 161 kts | 71° |
| 2026-04-17 12:04 | 22.30430 | 113.82859 | 1059 ft | 151 kts | 71° |
| 2026-04-17 12:05 | 22.30768 | 113.83905 | 862 ft | 140 kts | 72° |
| 2026-04-17 12:05 | 22.31086 | 113.84890 | 679 ft | 133 kts | 72° |
| 2026-04-17 12:05 | 22.31384 | 113.85816 | 515 ft | 132 kts | 72° |
| 2026-04-17 12:05 | 22.31682 | 113.86743 | 348 ft | 131 kts | 72° |
| 2026-04-17 12:06 | 22.31970 | 113.87639 | 183 ft | 131 kts | 72° |
| 2026-04-17 12:06 | 22.32246 | 113.88498 | 41 ft | 126 kts | 72° |
| 2026-04-17 12:06 | 22.32501 | 113.89291 | 36 ft | 87 kts | 72° |
| 2026-04-17 12:06 | 22.32622 | 113.89677 | 36 ft | 37 kts | 70° |
| 2026-04-17 12:07 | 22.32683 | 113.89863 | 36 ft | 20 kts | 75° |
| 2026-04-17 12:07 | 22.32701 | 113.89982 | 36 ft | 17 kts | 85° |
| 2026-04-17 12:07 | 22.32698 | 113.90089 | 36 ft | 16 kts | 97° |
| 2026-04-17 12:07 | 22.32691 | 113.90133 | 36 ft | 0 kts | 100° |
| 2026-04-17 12:08 | 22.32691 | 113.90134 | 36 ft | 1 kts | 100° |
| 2026-04-17 12:08 | 22.32684 | 113.90172 | 36 ft | 7 kts | 100° |
| 2026-04-17 12:08 | 22.32675 | 113.90223 | 36 ft | 11 kts | 102° |
| 2026-04-17 12:08 | 22.32666 | 113.90269 | 36 ft | 6 kts | 102° |
| 2026-04-17 12:09 | 22.32660 | 113.90304 | 36 ft | 1 kts | 99° |
| 2026-04-17 12:09 | 22.32660 | 113.90305 | 36 ft | 0 kts | 98° |